Latest Coastal Weather Observations for Norah Head

IDN60701

Issued at 9:51 pm EDT Monday 16 January 2017 (issued every 10 minutes, with the page automatically refreshed every 10 minutes)

About coastal observations | Map of coastal stations | Coastal observations for NSW | Marine services | Other Formats
Station Details ID: 061366 Name: NORAH HEAD AWS Lat: -33.28 Lon: 151.58 Height: 18.8 m
Data from the previous 72 hours. | See also: Recent months at Norah Head
Date/Time
EDT
Temp
°C
Wind Pressure Rain since
9am
mm
Weather Cloud Vis
km
Sea
Height
m
Swell
Dir  Spd
kts
Gust
kts
hPa Trend Height
m
Period
s
Dir
16/09:30pm 22.5 NE 19 23 1014.8 - 0.0 - - - - - - -
16/09:00pm 22.5 NE 20 23 1014.6 - 0.0 - - - - - - -
16/08:30pm 22.5 NE 20 25 1014.4 - 0.0 - - - - - - -
16/08:00pm 22.6 NE 20 25 1014.1 - 0.0 - - - - - - -
16/07:30pm 22.8 NE 21 24 1014.0 - 0.0 - - - - - - -
16/07:00pm 23.1 NE 19 23 1013.9 - 0.0 - - - - - - -
16/06:30pm 23.4 NE 18 21 1013.8 - 0.0 - - - - - - -
16/06:00pm 23.8 NE 19 23 1013.6 - 0.0 - - - - - - -
16/05:30pm 24.4 NE 20 24 1013.3 - 0.0 - - - - - - -
16/05:00pm 24.6 NE 18 22 1013.5 - 0.0 - - - - - - -
16/04:30pm 25.3 NE 18 22 1013.8 - 0.0 - - - - - - -
16/04:00pm 25.5 NE 18 21 1013.9 - 0.0 - - - - - - -
16/03:30pm 26.5 NE 18 21 1014.0 - 0.0 - - - - - - -
16/03:00pm 26.3 NE 18 21 1014.1 - 0.0 - - - - - - -
16/02:30pm 27.0 NE 17 20 1014.4 - 0.0 - - - - - - -
16/02:00pm 28.1 NE 16 19 1014.7 - 0.0 - - - - - - -
16/01:30pm 27.7 NE 15 18 1015.2 - 0.0 - - - - - - -
16/01:00pm 27.8 NE 15 18 1015.5 - 0.0 - - - - - - -
16/12:30pm 28.2 NE 14 16 1015.9 - 0.0 - - - - - - -
16/12:00pm 27.8 NE 13 14 1016.3 - 0.0 - - - - - - -
16/11:30am 27.7 NE 12 14 1016.5 - 0.0 - - - - - - -
16/11:00am 27.4 NE 11 13 1016.7 - 0.0 - - - - - - -
16/10:30am 24.8 NE 10 12 1016.8 - 0.0 - - - - - - -
16/10:00am 24.3 NE 9 11 1016.9 - 0.0 - - - - - - -
16/09:30am 23.6 NE 8 10 1017.1 - 0.0 - - - - - - -
16/09:00am 23.1 NE 8 10 1017.4 - 0.0 - - - - - - -
16/08:30am 24.4 NE 9 11 1017.3 - 0.0 - - - - - - -
16/08:00am 24.1 NE 10 11 1017.1 - 0.0 - - - - - - -
16/07:30am 23.1 NE 11 12 1016.9 - 0.0 - - - - - - -
16/07:00am 22.2 NE 10 12 1016.5 - 0.0 - - - - - - -
16/06:30am 21.6 NE 10 11 1016.4 - 0.0 - - - - - - -
16/06:00am 21.3 NE 9 11 1016.2 - 0.0 - - - - - - -
16/05:30am 21.4 NE 8 9 1016.2 - 0.0 - - - - - - -
16/05:00am 21.4 ENE 3 6 1016.2 - 0.0 - - - - - - -
16/04:30am 21.3 NE 2 3 1015.9 - 0.0 - - - - - - -
16/04:00am 21.2 CALM 0 0 1015.9 - 0.0 - - - - - - -
16/03:30am 21.3 CALM 0 0 1016.1 - 0.0 - - - - - - -
16/03:00am 21.2 CALM 0 0 1016.3 - 0.0 - - - - - - -
16/02:30am 21.1 CALM 0 0 1016.6 - 0.0 - - - - - - -
16/02:00am 21.1 N 2 3 1016.7 - 0.0 - - - - - - -
16/01:30am 21.1 N 3 3 1016.9 - 0.0 - - - - - - -
16/01:00am 20.8 N 5 6 1016.8 - 0.0 - - - - - - -
16/12:30am 20.9 N 6 7 1016.7 - 0.0 - - - - - - -
16/12:00am 21.2 N 9 11 1016.8 - 0.0 - - - - - - -
 
Date/Time
EDT
Temp
°C
Wind Pressure Rain since
9am
mm
Weather Cloud Vis
km
Sea
Height
m
Swell
Dir  Spd
kts
Gust
kts
hPa Trend Height
m
Period
s
Dir
15/11:30pm 21.4 NNE 12 14 1016.7 - 0.0 - - - - - - -
15/11:00pm 21.5 NNE 11 12 1016.7 - 0.0 - - - - - - -
15/10:30pm 21.5 NNE 9 11 1016.8 - 0.0 - - - - - - -
15/10:00pm 21.6 NNE 9 11 1016.7 - 0.0 - - - - - - -
15/09:30pm 21.7 NNE 10 11 1016.6 - 0.0 - - - - - - -
15/09:00pm 21.7 NE 9 11 1016.4 - 0.0 - - - - - - -
15/08:30pm 21.7 NE 7 8 1016.2 - 0.0 - - - - - - -
15/08:00pm 22.0 NE 10 11 1016.0 - 0.0 - - - - - - -
15/07:30pm 22.5 NE 9 10 1015.7 - 0.0 - - - - - - -
15/07:00pm 22.9 NE 8 9 1015.6 - 0.0 - - - - - - -
15/06:30pm 23.6 NE 8 9 1015.4 - 0.0 - - - - - - -
15/06:00pm 24.8 NE 7 8 1015.2 - 0.0 - - - - - - -
15/05:30pm 25.1 NE 8 9 1015.2 - 0.0 - - - - - - -
15/05:00pm 25.7 ENE 10 11 1015.4 - 0.0 - - - - - - -
15/04:30pm 26.3 ENE 10 11 1015.4 - 0.0 - - - - - - -
15/04:00pm 26.1 ENE 10 11 1015.6 - 0.0 - - - - - - -
15/03:30pm 25.9 ENE 11 13 1015.7 - 0.0 - - - - - - -
15/03:00pm 24.4 E 11 12 1015.8 - 0.0 - - - - - - -
15/02:30pm 24.5 E 12 14 1015.9 - 0.0 - - - - - - -
15/02:00pm 24.6 E 11 14 1016.0 - 0.0 - - - - - - -
15/01:30pm 26.8 ENE 3 5 1016.1 - 0.0 - - - - - - -
15/01:00pm 26.6 ENE 4 6 1016.0 - 0.0 - - - - - - -
15/12:30pm 24.3 E 4 5 1016.1 - 0.0 - - - - - - -
15/12:00pm 24.1 E 5 6 1016.0 - 0.0 - - - - - - -
15/11:30am 24.2 E 6 7 1015.7 - 0.0 - - - - - - -
15/11:00am 23.6 E 7 8 1015.6 - 0.0 - - - - - - -
15/10:30am 23.3 E 6 8 1015.4 - 0.0 - - - - - - -
15/10:00am 23.0 ESE 7 9 1015.3 - 0.0 - - - - - - -
15/09:30am 23.1 ESE 7 10 1015.1 - 0.0 - - - - - - -
15/09:00am 23.4 E 7 8 1014.8 - 0.0 - - - - - - -
15/08:30am 23.4 E 7 9 1014.3 - 0.0 - - - - - - -
15/08:00am 23.0 ESE 9 10 1014.2 - 0.0 - - - - - - -
15/07:30am 22.8 ESE 8 9 1014.1 - 0.0 - - - - - - -
15/07:00am 22.6 ESE 10 12 1013.6 - 0.0 - - - - - - -
15/06:30am 22.4 ESE 11 13 1013.1 - 0.0 - - - - - - -
15/06:00am 22.3 ESE 10 13 1012.6 - 0.0 - - - - - - -
15/05:30am 22.4 ESE 10 13 1012.4 - 0.0 - - - - - - -
15/05:00am 22.4 SE 11 13 1012.0 - 0.0 - - - - - - -
15/04:30am 22.4 SE 12 15 1011.5 - 0.0 - - - - - - -
15/04:00am 22.4 SE 14 16 1011.4 - 0.0 - - - - - - -
15/03:30am 22.4 SE 15 17 1011.1 - 0.0 - - - - - - -
15/03:00am 22.4 SE 16 19 1011.0 - 0.0 - - - - - - -
15/02:30am 22.6 SE 14 17 1011.3 - 0.0 - - - - - - -
15/02:00am 22.8 SE 14 17 1011.2 - 0.0 - - - - - - -
15/01:30am 22.7 SE 14 17 1011.3 - 0.0 - - - - - - -
15/01:00am 22.8 SE 12 15 1011.2 - 0.0 - - - - - - -
15/12:30am 22.9 SE 10 11 1011.0 - 0.0 - - - - - - -
15/12:00am 22.9 SSE 12 15 1010.6 - 0.0 - - - - - - -
 
Date/Time
EDT
Temp
°C
Wind Pressure Rain since
9am
mm
Weather Cloud Vis
km
Sea
Height
m
Swell
Dir  Spd
kts
Gust
kts
hPa Trend Height
m
Period
s
Dir
14/11:30pm 23.0 SSE 12 13 1010.5 - 0.0 - - - - - - -
14/11:00pm 23.1 SSE 11 14 1010.3 - 0.0 - - - - - - -
14/10:30pm 23.2 SSE 11 13 1010.0 - 0.0 - - - - - - -
14/10:00pm 23.4 SSE 12 13 1009.5 - 0.0 - - - - - - -
14/09:30pm 23.4 SSE 12 14 1009.0 - 0.0 - - - - - - -
14/09:00pm 23.6 SSE 11 12 1008.3 - 0.0 - - - - - - -
14/08:30pm 23.8 SE 10 13 1007.6 - 0.0 - - - - - - -
14/08:00pm 24.0 SSE 11 13 1006.8 - 0.0 - - - - - - -
14/07:30pm 24.6 SE 11 13 1006.1 - 0.0 - - - - - - -
14/07:00pm 25.6 SE 8 10 1005.7 - 0.0 - - - - - - -
14/06:30pm 27.0 SE 6 7 1004.6 - 0.0 - - - - - - -
14/06:00pm 27.3 ESE 4 6 1003.7 - 0.0 - - - - - - -
14/05:30pm 28.3 ENE 3 4 1003.2 - 0.0 - - - - - - -
14/05:00pm 27.8 ENE 2 3 1003.2 - 0.0 - - - - - - -
14/04:30pm 27.6 E 2 4 1003.0 - 0.0 - - - - - - -
14/04:00pm 27.6 ENE 1 3 1003.0 - 0.0 - - - - - - -
14/03:30pm 26.7 N 1 3 1002.8 - 0.0 - - - - - - -
14/03:00pm 26.2 S 3 4 1003.1 - 0.0 - - - - - - -
14/02:30pm 27.1 SSW 8 9 1003.0 - 0.0 - - - - - - -
14/02:00pm 26.3 SSW 8 9 1003.2 - 0.0 - - - - - - -
14/01:30pm 26.6 SSW 7 8 1003.5 - 0.0 - - - - - - -
14/01:00pm 27.6 SSW 11 11 1003.8 - 0.0 - - - - - - -
14/12:30pm 26.8 S 9 11 1003.8 - 0.0 - - - - - - -
14/12:00pm 27.1 SSE 13 14 1003.6 - 0.0 - - - - - - -
14/11:30am 28.2 SSE 3 4 1003.4 - 0.0 - - - - - - -
14/11:00am 28.9 CALM 0 1 1003.3 - 0.0 - - - - - - -
14/10:30am 27.8 CALM 0 0 1003.1 - 0.0 - - - - - - -
14/10:00am 30.1 WNW 2 4 1003.3 - 0.0 - - - - - - -
14/09:30am 30.1 W 3 5 1003.3 - 0.0 - - - - - - -
14/09:00am 29.9 WNW 4 8 1002.9 - 0.0 - - - - - - -
14/08:30am 27.5 NNW 1 3 1002.3 - 0.0 - - - - - - -
14/08:00am 27.1 NNW 4 5 1002.2 - 0.0 - - - - - - -
14/07:30am 26.6 N 2 4 1001.9 - 0.0 - - - - - - -
14/07:00am 28.9 CALM 0 3 1001.9 - 0.0 - - - - - - -
14/06:30am 26.8 NW 3 4 1001.4 - 0.0 - - - - - - -
14/06:00am 27.8 WSW 1 3 1001.0 - 0.0 - - - - - - -
14/05:30am 28.4 SW 3 4 1000.6 - 0.0 - - - - - - -
14/05:00am 28.8 SW 5 6 1000.6 - 0.0 - - - - - - -
14/04:30am 28.6 SW 5 7 1000.3 - 0.0 - - - - - - -
14/04:00am 28.7 SW 6 8 1000.3 - 0.0 - - - - - - -
14/03:30am 29.4 SW 9 11 1000.1 - 0.0 - - - - - - -
14/03:00am 26.3 SSW 8 11 1000.4 - 0.0 - - - - - - -
14/02:30am 27.8 SW 5 8 1000.7 - 0.0 - - - - - - -
14/02:00am 31.3 WSW 5 7 1000.7 - 0.0 - - - - - - -
14/01:30am 30.6 W 6 8 1000.6 - 0.0 - - - - - - -
14/01:00am 26.8 NW 3 4 1000.9 - 0.0 - - - - - - -
14/12:30am 26.5 SW 7 11 1001.0 - 0.0 - - - - - - -
14/12:00am 24.7 SSW 12 21 1000.8 - 0.0 - - - - - - -
 
Date/Time
EDT
Temp
°C
Wind Pressure Rain since
9am
mm
Weather Cloud Vis
km
Sea
Height
m
Swell
Dir  Spd
kts
Gust
kts
hPa Trend Height
m
Period
s
Dir
13/11:30pm 25.9 CALM 0 2 999.7 - 0.0 - - - - - - -
13/11:00pm 24.8 SSW 4 5 999.7 - 0.0 - - - - - - -
13/10:30pm 23.7 NNE 10 14 999.5 - 0.0 - - - - - - -
13/10:00pm 23.8 NNE 13 15 999.3 - 0.0 - - - - - - -

Other Formats:

Comma delimited format used in spreadsheet applications
http://www.bom.gov.au/fwo/IDN60701/IDN60701.95770.axf

JavaScript Object Notation format (JSON) in row-major order
http://www.bom.gov.au/fwo/IDN60701/IDN60701.95770.json